createdAt,value
2023-02-19T00:01:50.087Z,100245.72
2023-02-19T00:04:19.570Z,100242.22
2023-02-19T00:06:48.374Z,100239.72
2023-02-19T00:09:17.624Z,100246.53
2023-02-19T00:11:47.754Z,100231.84
2023-02-19T00:14:18.724Z,100241.28
2023-02-19T00:16:46.760Z,100237.97
2023-02-19T00:19:16.129Z,100241.34
2023-02-19T00:21:44.082Z,100237.94
2023-02-19T00:24:13.995Z,100247.94
2023-02-19T00:26:43.019Z,100257.41
2023-02-19T00:29:15.005Z,100259.13
2023-02-19T00:31:43.228Z,100255.63
2023-02-19T00:34:11.399Z,100249.00
2023-02-19T00:36:40.784Z,100249.78
2023-02-19T00:39:09.514Z,100246.88
2023-02-19T00:41:37.155Z,100241.06
2023-02-19T00:44:06.698Z,100236.53
2023-02-19T00:46:38.155Z,100246.19
2023-02-19T00:49:07.329Z,100241.22
2023-02-19T00:51:37.369Z,100249.81
2023-02-19T00:54:05.721Z,100244.50
2023-02-19T00:56:33.396Z,100242.13
2023-02-19T00:59:01.050Z,100248.34
2023-02-19T01:01:28.731Z,100241.91
2023-02-19T01:03:57.717Z,100238.97
2023-02-19T01:06:25.709Z,100269.03
2023-02-19T01:08:53.320Z,100275.38
2023-02-19T01:11:21.095Z,100269.91
2023-02-19T01:13:48.931Z,100281.28
2023-02-19T01:16:21.046Z,100275.03
2023-02-19T01:18:49.657Z,100266.69
2023-02-19T01:21:21.185Z,100261.03
2023-02-19T01:23:49.518Z,100237.59
2023-02-19T01:26:19.992Z,100238.75
2023-02-19T01:28:48.362Z,100225.22
2023-02-19T01:31:18.462Z,100242.44
2023-02-19T01:33:47.360Z,100247.16
2023-02-19T01:36:15.749Z,100255.81
2023-02-19T01:38:45.037Z,100248.03
2023-02-19T01:41:14.467Z,100254.81
2023-02-19T01:44:03.312Z,100247.44
2023-02-19T01:46:32.649Z,100242.84
2023-02-19T01:49:04.020Z,100246.75
2023-02-19T01:51:33.695Z,100242.16
2023-02-19T01:54:05.961Z,100239.78
2023-02-19T01:56:35.258Z,100241.47
2023-02-19T01:59:03.331Z,100242.25
2023-02-19T02:01:30.948Z,100235.44
2023-02-19T02:03:58.963Z,100238.44
2023-02-19T02:06:31.220Z,100220.03
2023-02-19T02:09:17.618Z,100228.78
2023-02-19T02:11:50.130Z,100217.63
2023-02-19T02:14:19.203Z,100217.03
2023-02-19T02:16:56.711Z,100226.44
2023-02-19T02:19:55.976Z,100221.97
2023-02-19T02:22:30.291Z,100215.63
2023-02-19T02:25:15.301Z,100202.38
2023-02-19T02:27:57.201Z,100202.81
2023-02-19T02:30:34.091Z,100202.38
2023-02-19T02:33:08.972Z,100204.94
2023-02-19T02:35:41.589Z,100189.22
2023-02-19T02:38:13.416Z,100176.94
2023-02-19T02:40:44.167Z,100189.44
2023-02-19T02:43:11.919Z,100182.66
2023-02-19T02:45:41.268Z,100185.31
2023-02-19T02:48:16.399Z,100178.50
2023-02-19T02:50:49.185Z,100179.31
2023-02-19T02:53:39.408Z,100177.97
2023-02-19T02:56:07.850Z,100186.41
2023-02-19T02:58:36.190Z,100164.53
2023-02-19T03:01:28.064Z,100161.50
2023-02-19T03:04:01.630Z,100170.94
2023-02-19T03:06:32.683Z,100173.13
2023-02-19T03:09:07.712Z,100186.28
2023-02-19T03:11:54.912Z,100162.34
2023-02-19T03:14:44.863Z,100178.19
2023-02-19T03:17:37.250Z,100184.44
2023-02-19T03:20:11.542Z,100189.97
2023-02-19T03:22:41.402Z,100191.25
2023-02-19T03:25:30.864Z,100176.28
2023-02-19T03:28:01.422Z,100160.78
2023-02-19T03:30:32.436Z,100174.00
2023-02-19T03:33:08.069Z,100178.25
2023-02-19T03:35:41.468Z,100178.09
2023-02-19T03:38:17.875Z,100175.97
2023-02-19T03:40:53.874Z,100169.69
2023-02-19T03:43:25.846Z,100152.84
2023-02-19T03:46:04.704Z,100163.59
2023-02-19T03:48:35.775Z,100162.59
2023-02-19T03:51:13.394Z,100154.38
2023-02-19T03:53:50.539Z,100168.31
2023-02-19T03:56:23.210Z,100172.31
2023-02-19T03:58:58.780Z,100174.59
2023-02-19T04:01:31.333Z,100177.97
2023-02-19T04:04:05.533Z,100174.91
2023-02-19T04:06:35.489Z,100197.78
2023-02-19T04:09:07.203Z,100189.41
2023-02-19T04:11:35.191Z,100203.47
2023-02-19T04:14:09.052Z,100194.00
2023-02-19T04:16:40.794Z,100189.22
2023-02-19T04:19:12.706Z,100190.66
2023-02-19T04:21:42.646Z,100192.53
2023-02-19T04:24:15.416Z,100190.53
2023-02-19T04:26:45.037Z,100195.19
2023-02-19T04:29:12.611Z,100185.84
2023-02-19T04:31:40.293Z,100197.47
2023-02-19T04:34:09.806Z,100198.19
2023-02-19T04:36:37.388Z,100202.28
2023-02-19T04:39:05.252Z,100210.59
2023-02-19T04:41:32.877Z,100204.72
2023-02-19T04:44:00.539Z,100204.25
2023-02-19T04:46:28.255Z,100196.50
2023-02-19T04:48:56.408Z,100197.63
2023-02-19T04:51:25.327Z,100204.78
2023-02-19T04:53:52.909Z,100206.53
2023-02-19T04:56:20.929Z,100207.72
2023-02-19T04:58:48.556Z,100206.13
2023-02-19T05:01:16.408Z,100204.38
2023-02-19T05:03:44.120Z,100205.84
2023-02-19T05:06:13.320Z,100206.84
2023-02-19T05:08:42.627Z,100205.66
2023-02-19T05:11:12.625Z,100212.06
2023-02-19T05:13:40.919Z,100208.38
2023-02-19T05:16:13.737Z,100216.78
2023-02-19T05:18:42.095Z,100218.50
2023-02-19T05:21:10.936Z,100233.59
2023-02-19T05:23:39.558Z,100228.31
2023-02-19T05:26:09.492Z,100234.59
2023-02-19T05:28:37.103Z,100226.16
2023-02-19T05:31:07.626Z,100223.72
2023-02-19T05:33:35.810Z,100224.47
2023-02-19T05:36:07.044Z,100220.75
2023-02-19T05:38:34.804Z,100228.84
2023-02-19T05:41:11.826Z,100231.88
2023-02-19T05:43:40.040Z,100234.97
2023-02-19T05:46:08.182Z,100232.28
2023-02-19T05:48:35.760Z,100229.69
2023-02-19T05:51:04.460Z,100227.19
2023-02-19T05:53:32.397Z,100230.84
2023-02-19T05:56:00.348Z,100224.53
2023-02-19T05:58:29.663Z,100239.13
2023-02-19T06:00:57.322Z,100241.22
2023-02-19T06:03:25.708Z,100243.34
2023-02-19T06:05:53.371Z,100249.25
2023-02-19T06:08:21.026Z,100249.16
2023-02-19T06:10:48.633Z,100254.03
2023-02-19T06:13:17.805Z,100259.31
2023-02-19T06:15:46.997Z,100252.81
2023-02-19T06:18:14.714Z,100252.13
2023-02-19T06:20:42.260Z,100265.63
2023-02-19T06:23:09.810Z,100250.59
2023-02-19T06:25:37.371Z,100274.09
2023-02-19T06:28:05.162Z,100244.88
2023-02-19T06:30:32.750Z,100242.06
2023-02-19T06:33:01.687Z,100262.38
2023-02-19T06:35:29.285Z,100260.56
2023-02-19T06:37:56.886Z,100266.41
2023-02-19T06:40:24.468Z,100268.88
2023-02-19T06:42:52.057Z,100279.63
2023-02-19T06:45:20.307Z,100273.88
2023-02-19T06:47:47.881Z,100273.88
2023-02-19T06:50:16.938Z,100278.56
2023-02-19T06:52:44.492Z,100295.09
2023-02-19T06:55:12.059Z,100281.72
2023-02-19T06:57:39.627Z,100292.16
2023-02-19T07:00:08.362Z,100286.72
2023-02-19T07:02:35.889Z,100299.47
2023-02-19T07:05:03.482Z,100288.91
2023-02-19T07:07:32.424Z,100289.25
2023-02-19T07:10:00.095Z,100319.66
2023-02-19T07:12:27.812Z,100314.72
2023-02-19T07:14:55.607Z,100317.38
2023-02-19T07:17:23.215Z,100317.59
2023-02-19T07:19:50.768Z,100328.03
2023-02-19T07:22:18.411Z,100336.66
2023-02-19T07:24:48.014Z,100337.78
2023-02-19T07:27:15.685Z,100357.22
2023-02-19T07:29:43.251Z,100355.69
2023-02-19T07:32:10.858Z,100357.50
2023-02-19T07:34:38.810Z,100371.09
2023-02-19T07:37:06.402Z,100374.44
2023-02-19T07:39:33.936Z,100369.44
2023-02-19T07:42:02.846Z,100381.31
2023-02-19T07:44:30.567Z,100378.06
2023-02-19T07:46:58.163Z,100380.72
2023-02-19T07:49:25.749Z,100386.69
2023-02-19T07:51:53.396Z,100394.69
2023-02-19T07:54:21.005Z,100380.09
2023-02-19T07:56:48.560Z,100378.00
2023-02-19T07:59:19.352Z,100383.13
2023-02-19T08:02:04.318Z,100381.63
2023-02-19T08:04:32.103Z,100373.91
2023-02-19T08:06:59.916Z,100390.78
2023-02-19T08:09:27.516Z,100394.69
2023-02-19T08:12:12.849Z,100412.75
2023-02-19T08:14:41.792Z,100398.63
2023-02-19T08:17:09.406Z,100399.81
2023-02-19T08:19:37.197Z,100389.56
2023-02-19T08:22:04.771Z,100396.19
2023-02-19T08:24:34.076Z,100405.28
2023-02-19T08:27:01.632Z,100414.34
2023-02-19T08:29:29.150Z,100408.91
2023-02-19T08:31:58.351Z,100402.41
2023-02-19T08:34:25.914Z,100411.19
2023-02-19T08:36:53.461Z,100417.59
2023-02-19T08:39:21.377Z,100424.84
2023-02-19T08:41:48.974Z,100428.22
2023-02-19T08:44:16.585Z,100438.78
2023-02-19T08:46:44.263Z,100432.97
2023-02-19T08:49:13.192Z,100451.59
2023-02-19T08:51:40.819Z,100453.31
2023-02-19T08:54:08.401Z,100466.88
2023-02-19T08:56:36.031Z,100475.25
2023-02-19T08:59:03.652Z,100476.84
2023-02-19T09:01:31.241Z,100474.78
2023-02-19T09:03:58.899Z,100490.28
2023-02-19T09:06:28.090Z,100486.47
2023-02-19T09:08:55.584Z,100491.91
2023-02-19T09:11:23.312Z,100492.38
2023-02-19T09:13:51.058Z,100498.22
2023-02-19T09:16:18.727Z,100491.31
2023-02-19T09:18:46.737Z,100493.50
2023-02-19T09:21:14.530Z,100509.44
2023-02-19T09:23:43.443Z,100510.25
2023-02-19T09:26:11.439Z,100506.91
2023-02-19T09:28:41.635Z,100500.59
2023-02-19T09:31:12.172Z,100503.13
2023-02-19T09:33:43.421Z,100492.53
2023-02-19T09:36:11.064Z,100505.97
2023-02-19T09:38:39.780Z,100501.56
2023-02-19T09:41:15.020Z,100498.69
2023-02-19T09:43:44.759Z,100498.75
2023-02-19T09:46:24.766Z,100508.41
2023-02-19T09:48:54.112Z,100511.41
2023-02-19T09:51:22.951Z,100507.84
2023-02-19T09:53:53.299Z,100519.13
2023-02-19T09:56:22.779Z,100533.03
2023-02-19T09:58:53.216Z,100532.97
2023-02-19T10:01:21.321Z,100538.13
2023-02-19T10:03:50.112Z,100539.53
2023-02-19T10:06:21.720Z,100541.13
2023-02-19T10:08:51.770Z,100539.66
2023-02-19T10:11:20.201Z,100518.09
2023-02-19T10:13:52.958Z,100515.16
2023-02-19T10:16:25.332Z,100501.19
2023-02-19T10:18:53.891Z,100507.00
2023-02-19T10:21:25.077Z,100508.75
2023-02-19T10:23:56.800Z,100517.09
2023-02-19T10:26:24.725Z,100517.91
2023-02-19T10:28:55.436Z,100519.13
2023-02-19T10:31:25.449Z,100526.53
2023-02-19T10:33:54.950Z,100522.00
2023-02-19T10:36:31.744Z,100524.09
2023-02-19T10:39:01.363Z,100522.00
2023-02-19T10:41:29.878Z,100533.88
2023-02-19T10:44:06.526Z,100521.59
2023-02-19T10:46:37.150Z,100517.31
2023-02-19T10:49:07.429Z,100525.13
2023-02-19T10:51:37.233Z,100516.16
2023-02-19T10:54:07.429Z,100528.34
2023-02-19T10:56:37.450Z,100517.16
2023-02-19T10:59:25.687Z,100513.38
2023-02-19T11:01:58.384Z,100517.56
2023-02-19T11:04:27.419Z,100517.75
2023-02-19T11:06:55.448Z,100529.22
2023-02-19T11:09:29.368Z,100527.75
2023-02-19T11:11:58.540Z,100528.84
2023-02-19T11:14:30.372Z,100541.50
2023-02-19T11:16:59.542Z,100546.66
2023-02-19T11:19:37.407Z,100557.59
2023-02-19T11:22:20.834Z,100566.59
2023-02-19T11:24:50.718Z,100576.91
2023-02-19T11:27:21.847Z,100563.25
2023-02-19T11:29:51.373Z,100571.59
2023-02-19T11:32:30.571Z,100579.38
2023-02-19T11:35:22.351Z,100571.56
2023-02-19T11:37:58.201Z,100568.56
2023-02-19T11:40:37.264Z,100573.16
2023-02-19T11:43:13.902Z,100552.25
2023-02-19T11:45:51.911Z,100538.34
2023-02-19T11:48:40.188Z,100534.31
2023-02-19T11:51:40.555Z,100547.78
2023-02-19T11:54:22.542Z,100549.31
2023-02-19T11:56:57.736Z,100556.09
2023-02-19T11:59:34.133Z,100566.59
2023-02-19T12:02:17.219Z,100557.47
2023-02-19T12:05:09.549Z,100559.44
2023-02-19T12:08:08.150Z,100569.75
2023-02-19T12:10:44.028Z,100568.59
2023-02-19T12:13:20.518Z,100571.94
2023-02-19T12:16:16.775Z,100570.94
2023-02-19T12:19:00.252Z,100571.06
2023-02-19T12:21:38.990Z,100583.53
2023-02-19T12:24:41.444Z,100583.06
2023-02-19T12:27:21.439Z,100596.84
2023-02-19T12:30:17.891Z,100607.91
2023-02-19T12:32:59.990Z,100588.44
2023-02-19T12:35:47.360Z,100579.84
2023-02-19T12:38:24.304Z,100586.00
2023-02-19T12:41:06.107Z,100568.94
2023-02-19T12:43:35.773Z,100562.19
2023-02-19T12:46:08.300Z,100557.22
2023-02-19T12:48:44.491Z,100568.22
2023-02-19T12:51:19.463Z,100559.56
2023-02-19T12:53:52.829Z,100563.94
2023-02-19T12:56:26.106Z,100567.09
2023-02-19T12:58:57.716Z,100563.81
2023-02-19T13:01:29.204Z,100568.78
2023-02-19T13:04:14.775Z,100559.28
2023-02-19T13:06:47.604Z,100555.47
2023-02-19T13:09:20.385Z,100553.13
2023-02-19T13:11:51.596Z,100546.72
2023-02-19T13:14:25.356Z,100535.16
2023-02-19T13:16:56.993Z,100544.66
2023-02-19T13:19:24.735Z,100540.53
2023-02-19T13:22:21.060Z,100541.22
2023-02-19T13:24:49.703Z,100546.13
2023-02-19T13:27:44.199Z,100550.88
2023-02-19T13:30:28.822Z,100555.00
2023-02-19T13:33:04.374Z,100558.28
2023-02-19T13:36:05.981Z,100553.59
2023-02-19T13:38:39.581Z,100548.63
2023-02-19T13:41:17.653Z,100551.56
2023-02-19T13:43:46.928Z,100554.38
2023-02-19T13:46:17.917Z,100548.59
2023-02-19T13:48:45.905Z,100543.31
2023-02-19T13:51:49.100Z,100552.56
2023-02-19T13:54:27.422Z,100545.22
2023-02-19T13:57:29.672Z,100536.16
2023-02-19T13:59:58.475Z,100536.00
2023-02-19T14:02:31.026Z,100536.69
2023-02-19T14:05:01.119Z,100530.72
2023-02-19T14:07:54.973Z,100538.19
2023-02-19T14:10:57.542Z,100538.34
2023-02-19T14:13:59.135Z,100546.34
2023-02-19T14:16:32.249Z,100547.00
2023-02-19T14:19:00.113Z,100538.69
2023-02-19T14:21:37.650Z,100552.97
2023-02-19T14:24:06.691Z,100562.28
2023-02-19T14:26:35.502Z,100566.25
2023-02-19T14:29:08.031Z,100588.34
2023-02-19T14:31:38.249Z,100579.84
2023-02-19T14:34:14.712Z,100564.88
2023-02-19T14:36:47.805Z,100579.81
2023-02-19T14:39:18.957Z,100577.16
2023-02-19T14:41:49.752Z,100575.34
2023-02-19T14:44:23.365Z,100568.22
2023-02-19T14:46:55.798Z,100571.66
2023-02-19T14:49:30.393Z,100583.25
2023-02-19T14:52:01.017Z,100579.06
2023-02-19T14:54:38.784Z,100580.97
2023-02-19T14:57:13.075Z,100579.66
2023-02-19T14:59:52.440Z,100588.63
2023-02-19T15:02:21.127Z,100592.91
2023-02-19T15:04:48.835Z,100595.72
2023-02-19T15:07:20.841Z,100614.25
2023-02-19T15:09:50.369Z,100616.13
2023-02-19T15:12:20.863Z,100627.72
2023-02-19T15:14:51.985Z,100626.59
2023-02-19T15:17:26.948Z,100624.91
2023-02-19T15:19:55.828Z,100629.94
2023-02-19T15:22:28.163Z,100641.25
2023-02-19T15:24:55.904Z,100632.75
2023-02-19T15:27:25.545Z,100629.53
2023-02-19T15:29:54.689Z,100633.56
2023-02-19T15:32:24.371Z,100639.22
2023-02-19T15:34:56.391Z,100637.09
2023-02-19T15:37:25.179Z,100653.84
2023-02-19T15:39:54.618Z,100652.88
2023-02-19T15:42:26.136Z,100656.88
2023-02-19T15:44:59.784Z,100655.63
2023-02-19T15:47:33.262Z,100661.66
2023-02-19T15:50:08.594Z,100657.63
2023-02-19T15:52:44.720Z,100657.72
2023-02-19T15:55:35.173Z,100660.50
2023-02-19T15:58:09.545Z,100663.72
2023-02-19T16:00:46.508Z,100672.03
2023-02-19T16:03:19.683Z,100666.97
2023-02-19T16:05:48.149Z,100663.72
2023-02-19T16:08:21.250Z,100665.88
2023-02-19T16:10:58.200Z,100662.31
2023-02-19T16:13:27.515Z,100651.16
2023-02-19T16:16:04.759Z,100645.31
2023-02-19T16:18:32.785Z,100653.94
2023-02-19T16:21:00.663Z,100640.34
2023-02-19T16:23:28.426Z,100645.13
2023-02-19T16:26:01.300Z,100644.22
2023-02-19T16:28:31.966Z,100650.13
2023-02-19T16:31:03.730Z,100642.47
2023-02-19T16:33:37.836Z,100640.84
2023-02-19T16:36:41.619Z,100643.25
2023-02-19T16:39:17.446Z,100642.72
2023-02-19T16:42:14.448Z,100638.66
2023-02-19T16:44:43.253Z,100645.06
2023-02-19T16:47:35.567Z,100641.03
2023-02-19T16:50:08.354Z,100636.75
2023-02-19T16:52:38.929Z,100636.59
2023-02-19T16:55:14.263Z,100633.53
2023-02-19T16:57:41.844Z,100646.72
2023-02-19T17:00:10.535Z,100650.53
2023-02-19T17:02:39.558Z,100652.72
2023-02-19T17:05:07.581Z,100655.28
2023-02-19T17:07:35.208Z,100658.19
2023-02-19T17:10:02.746Z,100658.84
2023-02-19T17:12:30.408Z,100672.34
2023-02-19T17:14:57.908Z,100675.97
2023-02-19T17:17:25.608Z,100670.53
2023-02-19T17:19:55.225Z,100666.91
2023-02-19T17:22:22.837Z,100665.47
2023-02-19T17:24:50.481Z,100675.75
2023-02-19T17:27:18.259Z,100677.16
2023-02-19T17:29:45.835Z,100686.22
2023-02-19T17:32:14.380Z,100686.81
2023-02-19T17:34:42.070Z,100697.38
2023-02-19T17:37:11.046Z,100700.41
2023-02-19T17:39:38.684Z,100700.16
2023-02-19T17:42:06.606Z,100710.72
2023-02-19T17:44:34.251Z,100717.72
2023-02-19T17:47:03.017Z,100719.66
2023-02-19T17:49:30.751Z,100730.69
2023-02-19T17:51:59.533Z,100734.16
2023-02-19T17:54:28.436Z,100745.59
2023-02-19T17:56:56.070Z,100746.25
2023-02-19T17:59:23.624Z,100748.34
2023-02-19T18:01:51.206Z,100740.69
2023-02-19T18:04:19.050Z,100749.47
2023-02-19T18:06:48.026Z,100760.22
2023-02-19T18:09:19.292Z,100767.88
2023-02-19T18:11:48.667Z,100766.50
2023-02-19T18:14:16.244Z,100763.81
2023-02-19T18:16:50.106Z,100770.97
2023-02-19T18:19:18.197Z,100787.81
2023-02-19T18:21:45.895Z,100775.53
2023-02-19T18:24:13.484Z,100776.25
2023-02-19T18:26:41.415Z,100779.72
2023-02-19T18:29:10.754Z,100787.81
2023-02-19T18:31:38.662Z,100784.44
2023-02-19T18:34:07.480Z,100791.72
2023-02-19T18:36:35.041Z,100799.19
2023-02-19T18:39:02.708Z,100801.72
2023-02-19T18:41:30.271Z,100805.19
2023-02-19T18:43:59.647Z,100808.84
2023-02-19T18:46:30.037Z,100809.22
2023-02-19T18:48:58.603Z,100801.72
2023-02-19T18:51:26.242Z,100806.72
2023-02-19T18:53:53.898Z,100807.91
2023-02-19T18:56:21.516Z,100810.59
2023-02-19T18:58:50.424Z,100803.78
2023-02-19T19:01:18.149Z,100806.84
2023-02-19T19:03:47.332Z,100810.47
2023-02-19T19:06:15.013Z,100809.22
2023-02-19T19:08:42.620Z,100795.47
2023-02-19T19:11:10.697Z,100798.06
2023-02-19T19:13:38.735Z,100790.88
2023-02-19T19:16:06.962Z,100794.06
2023-02-19T19:18:38.119Z,100799.38
2023-02-19T19:21:09.675Z,100806.72
2023-02-19T19:23:37.793Z,100797.94
2023-02-19T19:26:06.433Z,100798.09
2023-02-19T19:28:34.239Z,100802.28
2023-02-19T19:31:02.035Z,100813.28
2023-02-19T19:33:30.478Z,100809.66
2023-02-19T19:35:58.367Z,100807.41
2023-02-19T19:38:27.739Z,100805.75
2023-02-19T19:40:55.679Z,100805.22
2023-02-19T19:43:23.463Z,100809.25
2023-02-19T19:45:51.561Z,100809.25
2023-02-19T19:48:19.352Z,100808.97
2023-02-19T19:50:47.322Z,100806.19
2023-02-19T19:53:15.540Z,100809.22
2023-02-19T19:55:44.748Z,100827.50
2023-02-19T19:58:12.464Z,100826.66
2023-02-19T20:00:40.210Z,100815.66
2023-02-19T20:03:07.846Z,100825.81
2023-02-19T20:05:35.443Z,100819.00
2023-02-19T20:08:03.114Z,100818.59
2023-02-19T20:10:30.822Z,100816.50
2023-02-19T20:13:00.330Z,100812.44
2023-02-19T20:15:29.973Z,100818.16
2023-02-19T20:17:57.701Z,100818.97
2023-02-19T20:20:26.085Z,100814.69
2023-02-19T20:22:54.546Z,100817.16
2023-02-19T20:25:23.551Z,100823.72
2023-02-19T20:27:52.006Z,100826.66
2023-02-19T20:30:23.517Z,100836.13
2023-02-19T20:32:51.501Z,100830.56
2023-02-19T20:35:19.330Z,100832.94
2023-02-19T20:37:49.308Z,100840.69
2023-02-19T20:40:18.535Z,100850.59
2023-02-19T20:42:46.315Z,100852.13
2023-02-19T20:45:16.750Z,100849.34
2023-02-19T20:47:45.943Z,100842.38
2023-02-19T20:50:13.896Z,100841.97
2023-02-19T20:52:41.794Z,100850.03
2023-02-19T20:55:10.603Z,100849.06
2023-02-19T20:57:38.680Z,100845.16
2023-02-19T21:00:08.285Z,100846.03
2023-02-19T21:02:35.977Z,100853.53
2023-02-19T21:05:05.734Z,100850.44
2023-02-19T21:07:33.377Z,100846.69
2023-02-19T21:10:00.966Z,100843.75
2023-02-19T21:12:28.596Z,100842.66
2023-02-19T21:14:56.346Z,100838.47
2023-02-19T21:17:23.916Z,100836.69
2023-02-19T21:19:51.594Z,100839.72
2023-02-19T21:22:20.552Z,100839.72
2023-02-19T21:24:51.991Z,100839.19
2023-02-19T21:27:19.703Z,100835.28
2023-02-19T21:29:47.968Z,100837.22
2023-02-19T21:32:15.718Z,100844.19
2023-02-19T21:34:43.359Z,100844.75
2023-02-19T21:37:10.917Z,100841.81
2023-02-19T21:39:39.817Z,100838.88
2023-02-19T21:42:07.459Z,100844.78
2023-02-19T21:44:35.029Z,100843.06
2023-02-19T21:47:02.619Z,100850.19
2023-02-19T21:49:30.606Z,100860.59
2023-02-19T21:51:58.192Z,100859.47
2023-02-19T21:54:26.542Z,100858.91
2023-02-19T21:56:55.638Z,100865.75
2023-02-19T21:59:23.813Z,100860.59
2023-02-19T22:01:51.706Z,100870.31
2023-02-19T22:04:21.439Z,100872.00
2023-02-19T22:06:49.061Z,100870.16
2023-02-19T22:09:16.997Z,100858.75
2023-02-19T22:11:44.625Z,100866.00
2023-02-19T22:14:13.595Z,100856.69
2023-02-19T22:16:41.248Z,100854.97
2023-02-19T22:19:08.872Z,100854.31
2023-02-19T22:21:36.499Z,100850.38
2023-02-19T22:24:04.532Z,100853.88
2023-02-19T22:26:34.533Z,100849.56
2023-02-19T22:29:05.770Z,100848.16
2023-02-19T22:31:35.411Z,100854.59
2023-02-19T22:34:03.562Z,100858.06
2023-02-19T22:36:33.065Z,100859.56
2023-02-19T22:39:01.552Z,100866.16
2023-02-19T22:41:29.802Z,100854.09
2023-02-19T22:43:58.642Z,100850.97
2023-02-19T22:46:29.045Z,100865.19
2023-02-19T22:48:58.884Z,100868.78
2023-02-19T22:51:27.180Z,100867.69
2023-02-19T22:53:56.162Z,100874.50
2023-02-19T22:56:25.780Z,100871.81
2023-02-19T22:58:53.729Z,100876.56
2023-02-19T23:01:21.769Z,100874.84
2023-02-19T23:03:50.666Z,100875.00
2023-02-19T23:06:25.160Z,100878.47
2023-02-19T23:08:53.295Z,100883.13
2023-02-19T23:11:22.602Z,100890.50
2023-02-19T23:13:50.289Z,100893.66
2023-02-19T23:16:18.062Z,100896.22
2023-02-19T23:18:45.857Z,100902.31
2023-02-19T23:21:13.970Z,100904.56
2023-02-19T23:23:43.640Z,100902.22
2023-02-19T23:26:12.400Z,100905.78
2023-02-19T23:28:40.499Z,100901.13
2023-02-19T23:31:08.249Z,100889.06
2023-02-19T23:33:36.260Z,100893.47
2023-02-19T23:36:04.133Z,100893.22
2023-02-19T23:38:32.209Z,100895.25
2023-02-19T23:41:01.513Z,100891.09
2023-02-19T23:43:29.259Z,100882.06
2023-02-19T23:45:57.016Z,100881.78
2023-02-19T23:48:24.664Z,100887.91
2023-02-19T23:50:52.266Z,100887.53
2023-02-19T23:53:19.842Z,100886.94
2023-02-19T23:55:47.498Z,100887.53
2023-02-19T23:58:16.489Z,100896.84
